Airfield :
LOGIN :

Register | Disclaimer

   EN    FR    IT 

 










Legend :    VFR   Marginal VFR   IFR   Intensive IFR   Very Intensive IFR
Visi :
Ceiling :
>= 8 km
>= 3000ft
5 to 8 km
1000 to 3000 ft
1500m to 5 km
500 to 1000 ft
800 to 1500m
200 to 500 ft
< 800m
< 200 ft
Symbols :   Thunderstorms  Fog  Heavy snow  Heavy precipitations  Wind > 20 kt
SIGMETs :     Misc.  Thunderstorms  Icing  Turbulence  Mountain Waves  Volcanic Ashes






- Airport Elevation : 388 ft
- IATA code : QYR


LFQB - Troyes Barberey

CURRENT METAR :
  • 200100Z AUTO 32005KT CAVOK 02/01 Q1020

EXPIRED METARs :
  • 200030Z AUTO 31006KT CAVOK 02/01 Q1020
  • 200000Z AUTO 31008KT CAVOK 02/01 Q1020
  • 192330Z AUTO 32006KT CAVOK 03/02 Q1020
  • 192300Z AUTO 33009KT CAVOK 04/02 Q1020
  • 192230Z AUTO 34011KT CAVOK 06/03 Q1019
  • 192200Z AUTO 34010KT 9999 FEW041 07/04 Q1019
  • 192130Z AUTO 34009KT 9999 FEW022 07/05 Q1019
  • 192100Z AUTO 32009KT 9999 FEW047 BKN070 07/06 Q1018
  • 192030Z AUTO 31010KT 9999 FEW023 SCT064 07/06 Q1018

TAF N/A



MET'MAP, your aeronautical weather chart ! - Copyright ORBIFLY December 2007 - Disclaimer

ORBIFLY MET'MAP TEAM :

Programming & Development : Alexandra Zaïnal
Original concept : Baudouin d'Aumeries
Technical & hardware support : Manuel Goepfert
Assistance : Marc-Olivier Méhu




SOURCES & CREDITS :

   NOAA